SWA1173 KSJC-KONT
Flight info
| Callsign | SWA1173 |
|---|---|
| Flight time | 0h 56m |
| Altitude | 33000 |
| Route | SPTNS1 JFREE LOSHN EHF ZIGGY8 |
| Aircraft | B738/M-SDE2E3FGHIRWXY/LB1 |
Departure
| Time | 2026-05-05 02:37 |
|---|---|
| Airport | Norman Y. Mineta San Jose International Airport (KSJC) |
Arrival
| Time | 2026-05-05 03:33 |
|---|---|
| Airport | Ontario International Airport (KONT) |
| Time | Latitude | Longitude | Altitude | Speed | Heading |
|---|---|---|---|---|---|
| 2026-05-05 02:15 | 37.36403 | -121.92428 | 50 ft | 0 kts | 49° |
| 2026-05-05 02:26 | 37.36390 | -121.92446 | 47 ft | 4 kts | 52° |
| 2026-05-05 02:26 | 37.36375 | -121.92474 | 48 ft | 4 kts | 63° |
| 2026-05-05 02:27 | 37.36366 | -121.92505 | 50 ft | 4 kts | 94° |
| 2026-05-05 02:27 | 37.36371 | -121.92524 | 47 ft | 0 kts | 139° |
| 2026-05-05 02:29 | 37.36366 | -121.92518 | 51 ft | 2 kts | 139° |
| 2026-05-05 02:29 | 37.36357 | -121.92508 | 52 ft | 0 kts | 138° |
| 2026-05-05 02:30 | 37.36354 | -121.92504 | 47 ft | 1 kts | 138° |
| 2026-05-05 02:30 | 37.36347 | -121.92497 | 49 ft | 2 kts | 139° |
| 2026-05-05 02:30 | 37.36323 | -121.92471 | 51 ft | 7 kts | 138° |
| 2026-05-05 02:30 | 37.36269 | -121.92411 | 48 ft | 14 kts | 140° |
| 2026-05-05 02:31 | 37.36177 | -121.92327 | 50 ft | 17 kts | 172° |
| 2026-05-05 02:31 | 37.36067 | -121.92287 | 53 ft | 17 kts | 140° |
| 2026-05-05 02:31 | 37.35980 | -121.92191 | 55 ft | 16 kts | 139° |
| 2026-05-05 02:31 | 37.35895 | -121.92099 | 54 ft | 16 kts | 139° |
| 2026-05-05 02:32 | 37.35814 | -121.92011 | 55 ft | 15 kts | 139° |
| 2026-05-05 02:32 | 37.35736 | -121.91926 | 54 ft | 14 kts | 139° |
| 2026-05-05 02:32 | 37.35662 | -121.91844 | 56 ft | 14 kts | 139° |
| 2026-05-05 02:32 | 37.35592 | -121.91767 | 57 ft | 13 kts | 139° |
| 2026-05-05 02:33 | 37.35521 | -121.91689 | 54 ft | 14 kts | 140° |
| 2026-05-05 02:33 | 37.35439 | -121.91603 | 60 ft | 16 kts | 139° |
| 2026-05-05 02:33 | 37.35360 | -121.91514 | 56 ft | 15 kts | 140° |
| 2026-05-05 02:33 | 37.35307 | -121.91475 | 57 ft | 0 kts | 173° |
| 2026-05-05 02:36 | 37.35306 | -121.91475 | 57 ft | 1 kts | 173° |
| 2026-05-05 02:36 | 37.35285 | -121.91479 | 57 ft | 6 kts | 198° |
| 2026-05-05 02:36 | 37.35242 | -121.91529 | 57 ft | 10 kts | 254° |
| 2026-05-05 02:36 | 37.35288 | -121.91600 | 62 ft | 19 kts | 320° |
| 2026-05-05 02:37 | 37.35653 | -121.91998 | 54 ft | 118 kts | 319° |
| 2026-05-05 02:37 | 37.36443 | -121.92881 | 491 ft | 165 kts | 319° |
| 2026-05-05 02:37 | 37.37362 | -121.93908 | 1460 ft | 191 kts | 319° |
| 2026-05-05 02:37 | 37.38380 | -121.94956 | 2618 ft | 198 kts | 318° |
| 2026-05-05 02:38 | 37.39501 | -121.96173 | 2955 ft | 224 kts | 316° |
| 2026-05-05 02:38 | 37.40768 | -121.97362 | 3354 ft | 237 kts | 333° |
| 2026-05-05 02:38 | 37.42475 | -121.97679 | 3589 ft | 264 kts | 7° |
| 2026-05-05 02:38 | 37.44212 | -121.96788 | 4172 ft | 277 kts | 37° |
| 2026-05-05 02:39 | 37.45452 | -121.94967 | 4800 ft | 276 kts | 65° |
| 2026-05-05 02:39 | 37.45826 | -121.92664 | 5000 ft | 268 kts | 97° |
| 2026-05-05 02:39 | 37.45163 | -121.90568 | 5035 ft | 256 kts | 134° |
| 2026-05-05 02:39 | 37.43822 | -121.89122 | 5402 ft | 260 kts | 144° |
| 2026-05-05 02:40 | 37.42334 | -121.87727 | 6102 ft | 266 kts | 144° |
| 2026-05-05 02:40 | 37.40847 | -121.86342 | 6891 ft | 269 kts | 144° |
| 2026-05-05 02:40 | 37.39328 | -121.84919 | 7582 ft | 275 kts | 143° |
| 2026-05-05 02:40 | 37.37786 | -121.83462 | 8357 ft | 279 kts | 142° |
| 2026-05-05 02:41 | 37.36215 | -121.81971 | 9057 ft | 288 kts | 142° |
| 2026-05-05 02:41 | 37.34593 | -121.80429 | 9769 ft | 296 kts | 141° |
| 2026-05-05 02:41 | 37.32927 | -121.78845 | 10651 ft | 294 kts | 140° |
| 2026-05-05 02:41 | 37.31334 | -121.77179 | 11310 ft | 304 kts | 137° |
| 2026-05-05 02:42 | 37.29699 | -121.75322 | 11500 ft | 329 kts | 136° |
| 2026-05-05 02:42 | 37.27960 | -121.73311 | 11817 ft | 348 kts | 135° |
| 2026-05-05 02:42 | 37.26156 | -121.71231 | 12464 ft | 355 kts | 135° |
| 2026-05-05 02:42 | 37.24318 | -121.69125 | 13281 ft | 359 kts | 135° |
| 2026-05-05 02:43 | 37.22452 | -121.67000 | 14067 ft | 364 kts | 135° |
| 2026-05-05 02:43 | 37.20558 | -121.64850 | 14850 ft | 367 kts | 135° |
| 2026-05-05 02:43 | 37.18691 | -121.62735 | 15704 ft | 367 kts | 135° |
| 2026-05-05 02:43 | 37.16781 | -121.60576 | 16534 ft | 369 kts | 134° |
| 2026-05-05 02:44 | 37.14855 | -121.58399 | 17320 ft | 372 kts | 134° |
| 2026-05-05 02:44 | 37.12939 | -121.56237 | 18107 ft | 376 kts | 134° |
| 2026-05-05 02:44 | 37.10985 | -121.54031 | 18825 ft | 379 kts | 134° |
| 2026-05-05 02:44 | 37.09013 | -121.51807 | 19498 ft | 381 kts | 134° |
| 2026-05-05 02:45 | 37.07035 | -121.49579 | 20165 ft | 384 kts | 134° |
| 2026-05-05 02:45 | 37.05111 | -121.47266 | 20880 ft | 383 kts | 130° |
| 2026-05-05 02:45 | 37.03311 | -121.44851 | 21577 ft | 384 kts | 128° |
| 2026-05-05 02:45 | 37.01520 | -121.42350 | 22266 ft | 386 kts | 127° |
| 2026-05-05 02:46 | 36.99731 | -121.39834 | 22923 ft | 388 kts | 127° |
| 2026-05-05 02:46 | 36.97927 | -121.37310 | 23583 ft | 390 kts | 127° |
| 2026-05-05 02:46 | 36.96102 | -121.34779 | 24105 ft | 393 kts | 127° |
| 2026-05-05 02:46 | 36.94258 | -121.32238 | 24594 ft | 396 kts | 127° |
| 2026-05-05 02:47 | 36.92389 | -121.29673 | 25003 ft | 402 kts | 129° |
| 2026-05-05 02:47 | 36.90482 | -121.27065 | 25310 ft | 409 kts | 129° |
| 2026-05-05 02:47 | 36.88564 | -121.24450 | 25882 ft | 409 kts | 129° |
| 2026-05-05 02:47 | 36.86637 | -121.21829 | 26397 ft | 410 kts | 128° |
| 2026-05-05 02:48 | 36.84726 | -121.19230 | 26865 ft | 412 kts | 128° |
| 2026-05-05 02:48 | 36.82780 | -121.16582 | 27331 ft | 414 kts | 128° |
| 2026-05-05 02:48 | 36.80826 | -121.13925 | 27778 ft | 416 kts | 128° |
| 2026-05-05 02:48 | 36.78861 | -121.11255 | 28175 ft | 420 kts | 128° |
| 2026-05-05 02:49 | 36.76866 | -121.08544 | 28393 ft | 428 kts | 129° |
| 2026-05-05 02:49 | 36.74838 | -121.05792 | 28672 ft | 432 kts | 129° |
| 2026-05-05 02:49 | 36.72818 | -121.03057 | 29156 ft | 433 kts | 129° |
| 2026-05-05 02:49 | 36.70779 | -121.00299 | 29664 ft | 433 kts | 128° |
| 2026-05-05 02:50 | 36.68745 | -120.97549 | 30222 ft | 431 kts | 128° |
| 2026-05-05 02:50 | 36.66712 | -120.94802 | 30657 ft | 430 kts | 129° |
| 2026-05-05 02:50 | 36.64650 | -120.92105 | 31042 ft | 431 kts | 131° |
| 2026-05-05 02:50 | 36.62487 | -120.89502 | 31335 ft | 435 kts | 135° |
| 2026-05-05 02:51 | 36.60247 | -120.86907 | 31386 ft | 444 kts | 135° |
| 2026-05-05 02:51 | 36.57964 | -120.84294 | 31698 ft | 446 kts | 136° |
| 2026-05-05 02:51 | 36.55687 | -120.81688 | 32181 ft | 444 kts | 136° |
| 2026-05-05 02:51 | 36.53423 | -120.79083 | 32679 ft | 441 kts | 136° |
| 2026-05-05 02:52 | 36.51161 | -120.76467 | 33039 ft | 442 kts | 136° |
| 2026-05-05 02:52 | 36.46676 | -120.71252 | 33029 ft | 445 kts | 135° |
| 2026-05-05 02:53 | 36.42177 | -120.66016 | 33027 ft | 441 kts | 135° |
| 2026-05-05 02:53 | 36.38456 | -120.61692 | 33025 ft | 439 kts | 135° |
| 2026-05-05 02:54 | 36.33994 | -120.56516 | 33027 ft | 439 kts | 135° |
| 2026-05-05 02:54 | 36.29525 | -120.51338 | 33027 ft | 440 kts | 136° |
| 2026-05-05 02:55 | 36.25033 | -120.46144 | 33023 ft | 442 kts | 136° |
| 2026-05-05 02:55 | 36.20515 | -120.40931 | 33023 ft | 445 kts | 136° |
| 2026-05-05 02:56 | 36.15981 | -120.35704 | 33016 ft | 447 kts | 137° |
| 2026-05-05 02:56 | 36.11416 | -120.30453 | 33018 ft | 449 kts | 138° |
| 2026-05-05 02:57 | 36.06827 | -120.25183 | 33021 ft | 450 kts | 138° |
| 2026-05-05 02:57 | 36.02218 | -120.19899 | 33021 ft | 452 kts | 138° |
| 2026-05-05 02:58 | 35.97603 | -120.14615 | 33021 ft | 452 kts | 139° |
| 2026-05-05 02:58 | 35.92977 | -120.09327 | 32995 ft | 452 kts | 139° |
| 2026-05-05 02:59 | 35.88380 | -120.04081 | 33008 ft | 452 kts | 139° |
| 2026-05-05 02:59 | 35.84170 | -119.98327 | 33012 ft | 456 kts | 125° |
| 2026-05-05 03:00 | 35.81236 | -119.91352 | 33011 ft | 458 kts | 118° |
| 2026-05-05 03:00 | 35.78507 | -119.84295 | 33015 ft | 459 kts | 118° |
| 2026-05-05 03:01 | 35.75726 | -119.77217 | 33003 ft | 459 kts | 119° |
| 2026-05-05 03:01 | 35.72909 | -119.70150 | 33004 ft | 460 kts | 119° |
| 2026-05-05 03:02 | 35.70070 | -119.63069 | 33002 ft | 461 kts | 119° |
| 2026-05-05 03:02 | 35.67224 | -119.55986 | 32994 ft | 462 kts | 120° |
| 2026-05-05 03:03 | 35.64369 | -119.48886 | 32991 ft | 463 kts | 121° |
| 2026-05-05 03:03 | 35.61522 | -119.41823 | 32995 ft | 464 kts | 121° |
| 2026-05-05 03:04 | 35.58645 | -119.34700 | 32991 ft | 465 kts | 121° |
| 2026-05-05 03:04 | 35.55771 | -119.27599 | 32978 ft | 466 kts | 122° |
| 2026-05-05 03:05 | 35.52875 | -119.20460 | 32980 ft | 466 kts | 123° |
| 2026-05-05 03:05 | 35.49975 | -119.13325 | 32988 ft | 467 kts | 123° |
| 2026-05-05 03:05 | 35.48394 | -119.09938 | 32962 ft | 457 kts | 135° |
| 2026-05-05 03:06 | 35.46149 | -119.07229 | 33003 ft | 442 kts | 148° |
| 2026-05-05 03:06 | 35.41257 | -119.02656 | 32981 ft | 442 kts | 150° |
| 2026-05-05 03:07 | 35.36343 | -118.98110 | 32976 ft | 442 kts | 150° |
| 2026-05-05 03:07 | 35.31501 | -118.93553 | 32974 ft | 440 kts | 150° |
| 2026-05-05 03:08 | 35.26667 | -118.88973 | 32849 ft | 439 kts | 150° |
| 2026-05-05 03:08 | 35.24228 | -118.86665 | 32380 ft | 436 kts | 150° |
| 2026-05-05 03:08 | 35.21875 | -118.84434 | 31886 ft | 431 kts | 151° |
| 2026-05-05 03:08 | 35.19512 | -118.82197 | 31442 ft | 427 kts | 151° |
| 2026-05-05 03:09 | 35.17172 | -118.79987 | 30976 ft | 423 kts | 151° |
| 2026-05-05 03:09 | 35.14851 | -118.77799 | 30554 ft | 419 kts | 151° |
| 2026-05-05 03:09 | 35.12549 | -118.75631 | 30102 ft | 416 kts | 152° |
| 2026-05-05 03:09 | 35.10264 | -118.73480 | 29568 ft | 413 kts | 151° |
| 2026-05-05 03:10 | 35.08003 | -118.71342 | 29052 ft | 410 kts | 149° |
| 2026-05-05 03:10 | 35.05970 | -118.68859 | 28615 ft | 418 kts | 137° |
| 2026-05-05 03:10 | 35.04186 | -118.66064 | 28102 ft | 415 kts | 137° |
| 2026-05-05 03:10 | 35.02421 | -118.63366 | 27677 ft | 408 kts | 138° |
| 2026-05-05 03:11 | 35.00627 | -118.60713 | 27252 ft | 402 kts | 138° |
| 2026-05-05 03:11 | 34.98841 | -118.58102 | 26772 ft | 400 kts | 138° |
| 2026-05-05 03:11 | 34.97057 | -118.55504 | 26322 ft | 397 kts | 138° |
| 2026-05-05 03:11 | 34.95287 | -118.52930 | 25883 ft | 394 kts | 137° |
| 2026-05-05 03:12 | 34.93533 | -118.50379 | 25437 ft | 391 kts | 137° |
| 2026-05-05 03:12 | 34.91788 | -118.47844 | 25009 ft | 389 kts | 137° |
| 2026-05-05 03:12 | 34.90051 | -118.45320 | 24578 ft | 387 kts | 136° |
| 2026-05-05 03:12 | 34.88326 | -118.42814 | 24138 ft | 386 kts | 136° |
| 2026-05-05 03:13 | 34.86603 | -118.40311 | 23693 ft | 385 kts | 136° |
| 2026-05-05 03:13 | 34.84902 | -118.37842 | 23215 ft | 383 kts | 135° |
| 2026-05-05 03:13 | 34.83192 | -118.35358 | 22734 ft | 381 kts | 136° |
| 2026-05-05 03:13 | 34.81492 | -118.32891 | 22287 ft | 378 kts | 135° |
| 2026-05-05 03:14 | 34.79802 | -118.30443 | 21864 ft | 375 kts | 135° |
| 2026-05-05 03:14 | 34.78130 | -118.28021 | 21442 ft | 372 kts | 135° |
| 2026-05-05 03:14 | 34.76485 | -118.25640 | 21025 ft | 369 kts | 135° |
| 2026-05-05 03:14 | 34.74839 | -118.23259 | 20612 ft | 366 kts | 135° |
| 2026-05-05 03:15 | 34.73192 | -118.20879 | 20192 ft | 364 kts | 135° |
| 2026-05-05 03:15 | 34.71581 | -118.18552 | 19785 ft | 362 kts | 135° |
| 2026-05-05 03:15 | 34.69959 | -118.16211 | 19383 ft | 360 kts | 135° |
| 2026-05-05 03:15 | 34.68344 | -118.13881 | 18978 ft | 358 kts | 135° |
| 2026-05-05 03:16 | 34.66753 | -118.11587 | 18580 ft | 356 kts | 135° |
| 2026-05-05 03:16 | 34.65158 | -118.09289 | 18161 ft | 355 kts | 135° |
| 2026-05-05 03:16 | 34.63561 | -118.06990 | 17694 ft | 354 kts | 134° |
| 2026-05-05 03:16 | 34.62121 | -118.04570 | 17202 ft | 357 kts | 126° |
| 2026-05-05 03:17 | 34.60884 | -118.01926 | 16771 ft | 357 kts | 122° |
| 2026-05-05 03:17 | 34.59716 | -117.99240 | 16337 ft | 355 kts | 122° |
| 2026-05-05 03:17 | 34.58568 | -117.96587 | 15921 ft | 353 kts | 122° |
| 2026-05-05 03:17 | 34.57432 | -117.93998 | 15525 ft | 351 kts | 122° |
| 2026-05-05 03:18 | 34.56271 | -117.91392 | 15114 ft | 348 kts | 122° |
| 2026-05-05 03:18 | 34.55111 | -117.88822 | 14718 ft | 346 kts | 122° |
| 2026-05-05 03:18 | 34.53951 | -117.86271 | 14335 ft | 344 kts | 122° |
| 2026-05-05 03:18 | 34.52794 | -117.83740 | 13937 ft | 342 kts | 122° |
| 2026-05-05 03:19 | 34.50485 | -117.78700 | 13074 ft | 339 kts | 122° |
| 2026-05-05 03:19 | 34.49346 | -117.76220 | 12660 ft | 337 kts | 122° |
| 2026-05-05 03:19 | 34.48227 | -117.73782 | 12282 ft | 334 kts | 122° |
| 2026-05-05 03:20 | 34.47084 | -117.71296 | 11877 ft | 332 kts | 122° |
| 2026-05-05 03:20 | 34.45974 | -117.68880 | 11515 ft | 329 kts | 121° |
| 2026-05-05 03:20 | 34.44877 | -117.66493 | 11374 ft | 319 kts | 122° |
| 2026-05-05 03:20 | 34.43808 | -117.64172 | 11223 ft | 310 kts | 122° |
| 2026-05-05 03:21 | 34.42767 | -117.61910 | 11016 ft | 304 kts | 121° |
| 2026-05-05 03:21 | 34.41740 | -117.59673 | 10587 ft | 302 kts | 121° |
| 2026-05-05 03:21 | 34.40724 | -117.57468 | 10169 ft | 298 kts | 122° |
| 2026-05-05 03:21 | 34.39720 | -117.55298 | 9599 ft | 298 kts | 121° |
| 2026-05-05 03:22 | 34.38711 | -117.53115 | 9042 ft | 296 kts | 122° |
| 2026-05-05 03:22 | 34.37701 | -117.50934 | 8437 ft | 296 kts | 122° |
| 2026-05-05 03:22 | 34.36698 | -117.48766 | 7945 ft | 293 kts | 122° |
| 2026-05-05 03:22 | 34.35702 | -117.46609 | 7565 ft | 293 kts | 123° |
| 2026-05-05 03:23 | 34.34720 | -117.44482 | 7404 ft | 284 kts | 122° |
| 2026-05-05 03:23 | 34.33777 | -117.42458 | 7344 ft | 275 kts | 124° |
| 2026-05-05 03:23 | 34.32863 | -117.40487 | 7254 ft | 260 kts | 122° |
| 2026-05-05 03:23 | 34.32000 | -117.38624 | 7135 ft | 247 kts | 123° |
| 2026-05-05 03:24 | 34.31177 | -117.36847 | 6907 ft | 239 kts | 124° |
| 2026-05-05 03:24 | 34.30343 | -117.35133 | 6664 ft | 231 kts | 134° |
| 2026-05-05 03:24 | 34.29098 | -117.34027 | 6243 ft | 217 kts | 163° |
| 2026-05-05 03:24 | 34.27688 | -117.33508 | 6161 ft | 203 kts | 171° |
| 2026-05-05 03:25 | 34.26345 | -117.33113 | 6192 ft | 199 kts | 172° |
| 2026-05-05 03:25 | 34.24929 | -117.32708 | 6212 ft | 225 kts | 169° |
| 2026-05-05 03:25 | 34.23379 | -117.32247 | 6224 ft | 230 kts | 169° |
| 2026-05-05 03:25 | 34.21831 | -117.31785 | 6101 ft | 226 kts | 169° |
| 2026-05-05 03:26 | 34.20319 | -117.31332 | 5785 ft | 224 kts | 169° |
| 2026-05-05 03:26 | 34.18826 | -117.30882 | 5398 ft | 222 kts | 169° |
| 2026-05-05 03:26 | 34.17321 | -117.30429 | 5095 ft | 219 kts | 169° |
| 2026-05-05 03:26 | 34.15839 | -117.29984 | 4861 ft | 219 kts | 168° |
| 2026-05-05 03:27 | 34.14349 | -117.29535 | 4621 ft | 221 kts | 168° |
| 2026-05-05 03:27 | 34.12841 | -117.29161 | 4349 ft | 220 kts | 181° |
| 2026-05-05 03:27 | 34.11424 | -117.29654 | 4107 ft | 211 kts | 214° |
| 2026-05-05 03:27 | 34.10327 | -117.30777 | 3887 ft | 209 kts | 226° |
| 2026-05-05 03:28 | 34.09307 | -117.32040 | 3648 ft | 210 kts | 227° |
| 2026-05-05 03:28 | 34.08631 | -117.32887 | 3526 ft | 210 kts | 227° |
| 2026-05-05 03:28 | 34.07616 | -117.34148 | 3439 ft | 210 kts | 226° |
| 2026-05-05 03:28 | 34.06575 | -117.35436 | 3409 ft | 213 kts | 226° |
| 2026-05-05 03:29 | 34.05729 | -117.37473 | 3393 ft | 207 kts | 263° |
| 2026-05-05 03:29 | 34.05683 | -117.38649 | 3399 ft | 208 kts | 267° |
| 2026-05-05 03:29 | 34.05694 | -117.40395 | 3391 ft | 205 kts | 268° |
| 2026-05-05 03:29 | 34.05704 | -117.42029 | 3368 ft | 189 kts | 269° |
| 2026-05-05 03:30 | 34.05706 | -117.43570 | 3328 ft | 185 kts | 269° |
| 2026-05-05 03:30 | 34.05703 | -117.45111 | 3118 ft | 181 kts | 268° |
| 2026-05-05 03:30 | 34.05701 | -117.46612 | 2888 ft | 176 kts | 268° |
| 2026-05-05 03:30 | 34.05697 | -117.48044 | 2642 ft | 165 kts | 270° |
| 2026-05-05 03:31 | 34.05696 | -117.49371 | 2462 ft | 148 kts | 269° |
| 2026-05-05 03:31 | 34.05695 | -117.50565 | 2240 ft | 135 kts | 270° |
| 2026-05-05 03:31 | 34.05694 | -117.51702 | 2047 ft | 138 kts | 270° |
| 2026-05-05 03:31 | 34.05695 | -117.52853 | 1856 ft | 135 kts | 268° |
| 2026-05-05 03:32 | 34.05694 | -117.53968 | 1674 ft | 130 kts | 267° |
| 2026-05-05 03:32 | 34.05692 | -117.55063 | 1497 ft | 133 kts | 269° |
| 2026-05-05 03:32 | 34.05690 | -117.56166 | 1304 ft | 128 kts | 268° |
| 2026-05-05 03:32 | 34.05692 | -117.57234 | 1142 ft | 128 kts | 266° |
| 2026-05-05 03:33 | 34.05691 | -117.58310 | 965 ft | 130 kts | 266° |
| 2026-05-05 03:33 | 34.05687 | -117.59323 | 932 ft | 105 kts | 270° |
| 2026-05-05 03:33 | 34.05687 | -117.60057 | 937 ft | 69 kts | 270° |
| 2026-05-05 03:33 | 34.05687 | -117.60494 | 939 ft | 38 kts | 271° |
| 2026-05-05 03:34 | 34.05701 | -117.60712 | 936 ft | 12 kts | 297° |
| 2026-05-05 03:34 | 34.05759 | -117.60772 | 939 ft | 9 kts | 2° |
| 2026-05-05 03:34 | 34.05796 | -117.60716 | 939 ft | 9 kts | 71° |
| 2026-05-05 03:34 | 34.05801 | -117.60641 | 939 ft | 10 kts | 91° |
| 2026-05-05 03:35 | 34.05800 | -117.60539 | 939 ft | 15 kts | 91° |
| 2026-05-05 03:35 | 34.05797 | -117.60395 | 938 ft | 20 kts | 91° |
| 2026-05-05 03:35 | 34.05798 | -117.60214 | 938 ft | 23 kts | 88° |
| 2026-05-05 03:35 | 34.05798 | -117.60039 | 934 ft | 23 kts | 88° |
| 2026-05-05 03:36 | 34.05797 | -117.59832 | 929 ft | 25 kts | 87° |
| 2026-05-05 03:36 | 34.05800 | -117.59658 | 929 ft | 18 kts | 90° |
| 2026-05-05 03:36 | 34.05799 | -117.59504 | 927 ft | 19 kts | 88° |
| 2026-05-05 03:36 | 34.05800 | -117.59337 | 927 ft | 20 kts | 90° |
| 2026-05-05 03:37 | 34.05798 | -117.59171 | 930 ft | 20 kts | 91° |
| 2026-05-05 03:37 | 34.05796 | -117.59009 | 932 ft | 19 kts | 89° |
| 2026-05-05 03:37 | 34.05799 | -117.58850 | 933 ft | 19 kts | 90° |
| 2026-05-05 03:37 | 34.05800 | -117.58695 | 935 ft | 18 kts | 90° |
| 2026-05-05 03:38 | 34.05800 | -117.58538 | 933 ft | 20 kts | 90° |
| 2026-05-05 03:38 | 34.05815 | -117.58389 | 931 ft | 16 kts | 46° |
| 2026-05-05 03:38 | 34.05898 | -117.58427 | 933 ft | 15 kts | 276° |
| 2026-05-05 03:38 | 34.05898 | -117.58548 | 935 ft | 14 kts | 269° |
| 2026-05-05 03:39 | 34.05899 | -117.58663 | 937 ft | 14 kts | 270° |
| 2026-05-05 03:39 | 34.05907 | -117.58723 | 938 ft | 6 kts | 300° |
| 2026-05-05 03:39 | 34.05945 | -117.58739 | 938 ft | 6 kts | 358° |
| 2026-05-05 03:39 | 34.05963 | -117.58739 | 937 ft | 1 kts | 359° |
| 2026-05-05 03:40 | 34.05969 | -117.58739 | 938 ft | 0 kts | 359° |